sensor_id;sensor_type;location;lat;lon;timestamp;temperature;humidity
13488;DHT22;6816;48.506;9.050;2023-02-02T00:01:55;7.60;99.90
13488;DHT22;6816;48.506;9.050;2023-02-02T00:04:56;7.60;99.90
13488;DHT22;6816;48.506;9.050;2023-02-02T00:07:58;7.60;99.90
13488;DHT22;6816;48.506;9.050;2023-02-02T00:10:58;7.60;99.90
13488;DHT22;6816;48.506;9.050;2023-02-02T00:13:59;7.60;99.90
13488;DHT22;6816;48.506;9.050;2023-02-02T00:17:00;7.60;99.90
13488;DHT22;6816;48.506;9.050;2023-02-02T00:20:00;7.70;99.90
13488;DHT22;6816;48.506;9.050;2023-02-02T00:23:02;7.70;99.90
13488;DHT22;6816;48.506;9.050;2023-02-02T00:26:03;7.70;99.90
13488;DHT22;6816;48.506;9.050;2023-02-02T00:29:05;7.70;99.90
13488;DHT22;6816;48.506;9.050;2023-02-02T00:32:05;7.70;99.90
13488;DHT22;6816;48.506;9.050;2023-02-02T00:35:07;7.70;99.90
13488;DHT22;6816;48.506;9.050;2023-02-02T00:38:08;7.70;99.90
13488;DHT22;6816;48.506;9.050;2023-02-02T00:41:08;7.70;99.90
13488;DHT22;6816;48.506;9.050;2023-02-02T00:44:09;7.70;99.90
13488;DHT22;6816;48.506;9.050;2023-02-02T00:47:28;7.80;99.90
13488;DHT22;6816;48.506;9.050;2023-02-02T00:50:29;7.70;99.90
13488;DHT22;6816;48.506;9.050;2023-02-02T00:53:30;7.70;99.90
13488;DHT22;6816;48.506;9.050;2023-02-02T00:56:30;7.70;99.90
13488;DHT22;6816;48.506;9.050;2023-02-02T00:59:31;7.70;99.90
13488;DHT22;6816;48.506;9.050;2023-02-02T01:02:36;7.70;99.90
13488;DHT22;6816;48.506;9.050;2023-02-02T01:05:37;7.70;99.90
13488;DHT22;6816;48.506;9.050;2023-02-02T01:08:37;7.70;99.90
13488;DHT22;6816;48.506;9.050;2023-02-02T01:11:38;7.70;99.90
13488;DHT22;6816;48.506;9.050;2023-02-02T01:14:39;7.70;99.90
13488;DHT22;6816;48.506;9.050;2023-02-02T01:17:39;7.80;99.90
13488;DHT22;6816;48.506;9.050;2023-02-02T01:20:40;7.70;99.90
13488;DHT22;6816;48.506;9.050;2023-02-02T01:23:41;7.70;99.90
13488;DHT22;6816;48.506;9.050;2023-02-02T01:26:41;7.80;99.90
13488;DHT22;6816;48.506;9.050;2023-02-02T01:29:42;7.80;99.90
13488;DHT22;6816;48.506;9.050;2023-02-02T01:32:43;7.80;99.90
13488;DHT22;6816;48.506;9.050;2023-02-02T01:35:52;7.80;99.90
13488;DHT22;6816;48.506;9.050;2023-02-02T01:38:52;7.80;99.90
13488;DHT22;6816;48.506;9.050;2023-02-02T01:41:53;7.80;99.90
13488;DHT22;6816;48.506;9.050;2023-02-02T01:48:06;7.80;99.90
13488;DHT22;6816;48.506;9.050;2023-02-02T01:51:12;7.80;99.90
13488;DHT22;6816;48.506;9.050;2023-02-02T01:54:19;7.80;99.90
13488;DHT22;6816;48.506;9.050;2023-02-02T01:57:29;7.80;99.90
13488;DHT22;6816;48.506;9.050;2023-02-02T02:00:31;7.80;99.90
13488;DHT22;6816;48.506;9.050;2023-02-02T02:03:33;7.80;99.90
13488;DHT22;6816;48.506;9.050;2023-02-02T02:06:34;7.80;99.90
13488;DHT22;6816;48.506;9.050;2023-02-02T02:09:35;7.80;99.90
13488;DHT22;6816;48.506;9.050;2023-02-02T02:12:36;7.80;99.90
13488;DHT22;6816;48.506;9.050;2023-02-02T02:15:47;7.80;99.90
13488;DHT22;6816;48.506;9.050;2023-02-02T02:19:38;7.80;99.90
13488;DHT22;6816;48.506;9.050;2023-02-02T02:23:28;7.90;99.90
13488;DHT22;6816;48.506;9.050;2023-02-02T02:37:09;7.90;99.90
13488;DHT22;6816;48.506;9.050;2023-02-02T02:43:55;7.90;99.90
13488;DHT22;6816;48.506;9.050;2023-02-02T02:46:57;7.80;99.90
13488;DHT22;6816;48.506;9.050;2023-02-02T02:49:57;7.80;99.90
13488;DHT22;6816;48.506;9.050;2023-02-02T02:53:04;7.80;99.90
13488;DHT22;6816;48.506;9.050;2023-02-02T02:56:16;7.70;99.90
13488;DHT22;6816;48.506;9.050;2023-02-02T03:03:18;7.60;99.90
13488;DHT22;6816;48.506;9.050;2023-02-02T03:06:28;7.50;99.90
13488;DHT22;6816;48.506;9.050;2023-02-02T03:09:36;7.40;99.90
13488;DHT22;6816;48.506;9.050;2023-02-02T03:12:49;7.40;99.90
13488;DHT22;6816;48.506;9.050;2023-02-02T03:15:50;7.30;99.90
13488;DHT22;6816;48.506;9.050;2023-02-02T03:18:50;7.20;99.90
13488;DHT22;6816;48.506;9.050;2023-02-02T03:21:51;7.20;99.90
13488;DHT22;6816;48.506;9.050;2023-02-02T03:24:52;7.20;99.90
13488;DHT22;6816;48.506;9.050;2023-02-02T03:27:53;7.20;99.90
13488;DHT22;6816;48.506;9.050;2023-02-02T03:30:54;7.20;99.90
13488;DHT22;6816;48.506;9.050;2023-02-02T03:33:55;7.30;99.90
13488;DHT22;6816;48.506;9.050;2023-02-02T03:36:56;7.20;99.90
13488;DHT22;6816;48.506;9.050;2023-02-02T03:39:56;7.30;99.90
13488;DHT22;6816;48.506;9.050;2023-02-02T03:42:57;7.30;99.90
13488;DHT22;6816;48.506;9.050;2023-02-02T03:46:00;7.30;99.90
13488;DHT22;6816;48.506;9.050;2023-02-02T03:49:00;7.30;99.90
13488;DHT22;6816;48.506;9.050;2023-02-02T03:52:01;7.30;99.90
13488;DHT22;6816;48.506;9.050;2023-02-02T03:55:04;7.30;99.90
13488;DHT22;6816;48.506;9.050;2023-02-02T03:58:05;7.30;99.90
13488;DHT22;6816;48.506;9.050;2023-02-02T04:01:10;7.40;99.90
13488;DHT22;6816;48.506;9.050;2023-02-02T04:04:11;7.40;99.90
13488;DHT22;6816;48.506;9.050;2023-02-02T04:07:12;7.40;99.90
13488;DHT22;6816;48.506;9.050;2023-02-02T04:10:13;7.40;99.90
13488;DHT22;6816;48.506;9.050;2023-02-02T04:13:13;7.40;99.90
13488;DHT22;6816;48.506;9.050;2023-02-02T04:16:14;7.50;99.90
13488;DHT22;6816;48.506;9.050;2023-02-02T04:19:15;7.40;99.90
13488;DHT22;6816;48.506;9.050;2023-02-02T04:22:16;7.40;99.90
13488;DHT22;6816;48.506;9.050;2023-02-02T04:25:16;7.40;99.90
13488;DHT22;6816;48.506;9.050;2023-02-02T04:28:17;7.50;99.90
13488;DHT22;6816;48.506;9.050;2023-02-02T04:31:18;7.40;99.90
13488;DHT22;6816;48.506;9.050;2023-02-02T04:34:19;7.60;99.90
13488;DHT22;6816;48.506;9.050;2023-02-02T04:37:19;7.50;99.90
13488;DHT22;6816;48.506;9.050;2023-02-02T04:40:20;7.50;99.90
13488;DHT22;6816;48.506;9.050;2023-02-02T04:43:20;7.50;99.90
13488;DHT22;6816;48.506;9.050;2023-02-02T04:46:21;7.60;99.90
13488;DHT22;6816;48.506;9.050;2023-02-02T04:49:22;7.70;99.90
13488;DHT22;6816;48.506;9.050;2023-02-02T04:52:22;7.60;99.90
13488;DHT22;6816;48.506;9.050;2023-02-02T04:55:23;7.60;99.90
13488;DHT22;6816;48.506;9.050;2023-02-02T04:58:24;7.60;99.90
13488;DHT22;6816;48.506;9.050;2023-02-02T05:01:25;7.60;99.90
13488;DHT22;6816;48.506;9.050;2023-02-02T05:04:25;7.60;99.90
13488;DHT22;6816;48.506;9.050;2023-02-02T05:07:26;7.60;99.90
13488;DHT22;6816;48.506;9.050;2023-02-02T05:10:27;7.60;99.90
13488;DHT22;6816;48.506;9.050;2023-02-02T05:13:28;7.60;99.90
13488;DHT22;6816;48.506;9.050;2023-02-02T05:16:28;7.60;99.90
13488;DHT22;6816;48.506;9.050;2023-02-02T05:19:29;7.50;99.90
13488;DHT22;6816;48.506;9.050;2023-02-02T05:22:30;7.70;99.90
13488;DHT22;6816;48.506;9.050;2023-02-02T05:25:30;7.50;99.90
13488;DHT22;6816;48.506;9.050;2023-02-02T05:28:31;7.50;99.90
13488;DHT22;6816;48.506;9.050;2023-02-02T05:31:34;7.50;99.90
13488;DHT22;6816;48.506;9.050;2023-02-02T05:34:35;7.50;99.90
13488;DHT22;6816;48.506;9.050;2023-02-02T05:37:36;7.40;99.90
13488;DHT22;6816;48.506;9.050;2023-02-02T05:40:36;7.50;99.90
13488;DHT22;6816;48.506;9.050;2023-02-02T05:43:37;7.50;99.90
13488;DHT22;6816;48.506;9.050;2023-02-02T05:46:38;7.50;99.90
13488;DHT22;6816;48.506;9.050;2023-02-02T05:49:38;7.50;99.90
13488;DHT22;6816;48.506;9.050;2023-02-02T05:52:40;7.50;99.90
13488;DHT22;6816;48.506;9.050;2023-02-02T05:55:41;7.50;99.90
13488;DHT22;6816;48.506;9.050;2023-02-02T05:58:42;7.50;99.90
13488;DHT22;6816;48.506;9.050;2023-02-02T06:01:47;7.50;99.90
13488;DHT22;6816;48.506;9.050;2023-02-02T06:04:48;7.60;99.90
13488;DHT22;6816;48.506;9.050;2023-02-02T06:07:49;7.60;99.90
13488;DHT22;6816;48.506;9.050;2023-02-02T06:10:49;7.60;99.90
13488;DHT22;6816;48.506;9.050;2023-02-02T06:13:50;7.60;99.90
13488;DHT22;6816;48.506;9.050;2023-02-02T06:16:50;7.60;99.90
13488;DHT22;6816;48.506;9.050;2023-02-02T06:19:51;7.60;99.90
13488;DHT22;6816;48.506;9.050;2023-02-02T06:22:52;7.60;99.90
13488;DHT22;6816;48.506;9.050;2023-02-02T06:25:53;7.70;99.90
13488;DHT22;6816;48.506;9.050;2023-02-02T06:28:53;7.60;99.90
13488;DHT22;6816;48.506;9.050;2023-02-02T06:31:54;7.60;99.90
13488;DHT22;6816;48.506;9.050;2023-02-02T06:34:55;7.50;99.90
13488;DHT22;6816;48.506;9.050;2023-02-02T06:37:56;7.60;99.90
13488;DHT22;6816;48.506;9.050;2023-02-02T06:41:01;7.50;99.90
13488;DHT22;6816;48.506;9.050;2023-02-02T06:44:02;7.50;99.90
13488;DHT22;6816;48.506;9.050;2023-02-02T06:47:03;7.50;99.90
13488;DHT22;6816;48.506;9.050;2023-02-02T06:50:03;7.60;99.90
13488;DHT22;6816;48.506;9.050;2023-02-02T06:53:04;7.50;99.90
13488;DHT22;6816;48.506;9.050;2023-02-02T06:56:06;7.50;99.90
13488;DHT22;6816;48.506;9.050;2023-02-02T06:59:09;7.50;99.90
13488;DHT22;6816;48.506;9.050;2023-02-02T07:02:10;7.50;99.90
13488;DHT22;6816;48.506;9.050;2023-02-02T07:05:11;7.50;99.90
13488;DHT22;6816;48.506;9.050;2023-02-02T07:08:12;7.50;99.90
13488;DHT22;6816;48.506;9.050;2023-02-02T07:11:12;7.50;99.90
13488;DHT22;6816;48.506;9.050;2023-02-02T07:14:13;7.50;99.90
13488;DHT22;6816;48.506;9.050;2023-02-02T07:17:14;7.60;99.90
13488;DHT22;6816;48.506;9.050;2023-02-02T07:20:15;7.60;99.90
13488;DHT22;6816;48.506;9.050;2023-02-02T07:23:15;7.60;99.90
13488;DHT22;6816;48.506;9.050;2023-02-02T07:26:17;7.60;99.90
13488;DHT22;6816;48.506;9.050;2023-02-02T07:29:18;7.60;99.90
13488;DHT22;6816;48.506;9.050;2023-02-02T07:32:19;7.60;99.90
13488;DHT22;6816;48.506;9.050;2023-02-02T07:35:19;7.70;99.90
13488;DHT22;6816;48.506;9.050;2023-02-02T07:38:20;7.70;99.90
13488;DHT22;6816;48.506;9.050;2023-02-02T07:41:20;7.70;99.90
13488;DHT22;6816;48.506;9.050;2023-02-02T07:44:21;7.70;99.90
13488;DHT22;6816;48.506;9.050;2023-02-02T07:47:22;7.80;99.90
13488;DHT22;6816;48.506;9.050;2023-02-02T07:50:23;7.80;99.90
13488;DHT22;6816;48.506;9.050;2023-02-02T07:53:24;7.80;99.90
13488;DHT22;6816;48.506;9.050;2023-02-02T07:56:26;7.90;99.90
13488;DHT22;6816;48.506;9.050;2023-02-02T07:59:27;7.90;99.90
13488;DHT22;6816;48.506;9.050;2023-02-02T08:02:28;7.90;99.90
13488;DHT22;6816;48.506;9.050;2023-02-02T08:05:28;7.90;99.90
13488;DHT22;6816;48.506;9.050;2023-02-02T08:08:29;8.00;99.90
13488;DHT22;6816;48.506;9.050;2023-02-02T08:11:30;8.00;99.90
13488;DHT22;6816;48.506;9.050;2023-02-02T08:14:31;8.00;99.90
13488;DHT22;6816;48.506;9.050;2023-02-02T08:17:32;8.10;99.90
13488;DHT22;6816;48.506;9.050;2023-02-02T08:20:32;8.10;99.90
13488;DHT22;6816;48.506;9.050;2023-02-02T08:23:33;8.20;99.90
13488;DHT22;6816;48.506;9.050;2023-02-02T08:26:35;8.20;99.90
13488;DHT22;6816;48.506;9.050;2023-02-02T08:29:37;8.20;99.90
13488;DHT22;6816;48.506;9.050;2023-02-02T08:32:38;8.40;99.90
13488;DHT22;6816;48.506;9.050;2023-02-02T08:35:41;8.20;99.90
13488;DHT22;6816;48.506;9.050;2023-02-02T08:38:42;8.30;99.90
13488;DHT22;6816;48.506;9.050;2023-02-02T08:41:42;8.30;99.90
13488;DHT22;6816;48.506;9.050;2023-02-02T08:44:44;8.30;99.90
13488;DHT22;6816;48.506;9.050;2023-02-02T08:47:45;8.30;99.90
13488;DHT22;6816;48.506;9.050;2023-02-02T08:50:53;8.40;99.90
13488;DHT22;6816;48.506;9.050;2023-02-02T08:53:53;8.40;99.90
13488;DHT22;6816;48.506;9.050;2023-02-02T08:56:55;8.50;99.90
13488;DHT22;6816;48.506;9.050;2023-02-02T08:59:56;8.60;99.90
13488;DHT22;6816;48.506;9.050;2023-02-02T09:02:56;8.70;99.90
13488;DHT22;6816;48.506;9.050;2023-02-02T09:05:57;8.80;99.90
13488;DHT22;6816;48.506;9.050;2023-02-02T09:08:57;8.80;99.90
13488;DHT22;6816;48.506;9.050;2023-02-02T09:11:59;8.80;99.90
13488;DHT22;6816;48.506;9.050;2023-02-02T09:15:00;8.80;99.90
13488;DHT22;6816;48.506;9.050;2023-02-02T09:18:00;9.00;99.90
13488;DHT22;6816;48.506;9.050;2023-02-02T09:21:03;8.90;99.90
13488;DHT22;6816;48.506;9.050;2023-02-02T09:24:06;8.90;99.90
13488;DHT22;6816;48.506;9.050;2023-02-02T09:27:07;8.90;99.90
13488;DHT22;6816;48.506;9.050;2023-02-02T09:30:08;8.90;99.90
13488;DHT22;6816;48.506;9.050;2023-02-02T09:33:09;8.90;99.90
13488;DHT22;6816;48.506;9.050;2023-02-02T09:36:13;8.90;99.90
13488;DHT22;6816;48.506;9.050;2023-02-02T09:39:14;8.90;99.90
13488;DHT22;6816;48.506;9.050;2023-02-02T09:42:40;8.90;99.90
13488;DHT22;6816;48.506;9.050;2023-02-02T09:49:36;8.90;99.90
13488;DHT22;6816;48.506;9.050;2023-02-02T09:55:44;8.90;99.90
13488;DHT22;6816;48.506;9.050;2023-02-02T09:58:52;8.90;99.90
13488;DHT22;6816;48.506;9.050;2023-02-02T10:01:56;8.90;99.90
13488;DHT22;6816;48.506;9.050;2023-02-02T10:05:06;8.80;99.90
13488;DHT22;6816;48.506;9.050;2023-02-02T10:08:31;8.90;99.90
13488;DHT22;6816;48.506;9.050;2023-02-02T10:11:38;8.90;99.90
13488;DHT22;6816;48.506;9.050;2023-02-02T10:15:02;8.90;99.90
13488;DHT22;6816;48.506;9.050;2023-02-02T10:18:27;8.90;99.90
13488;DHT22;6816;48.506;9.050;2023-02-02T10:24:43;8.90;99.90
13488;DHT22;6816;48.506;9.050;2023-02-02T10:28:05;9.00;99.90
13488;DHT22;6816;48.506;9.050;2023-02-02T10:31:16;9.00;99.90
13488;DHT22;6816;48.506;9.050;2023-02-02T10:34:35;9.00;99.90
13488;DHT22;6816;48.506;9.050;2023-02-02T10:44:26;9.00;99.90
13488;DHT22;6816;48.506;9.050;2023-02-02T10:47:32;9.00;99.90
13488;DHT22;6816;48.506;9.050;2023-02-02T10:50:33;9.10;99.90
13488;DHT22;6816;48.506;9.050;2023-02-02T10:53:34;9.10;99.90
13488;DHT22;6816;48.506;9.050;2023-02-02T10:56:48;9.10;99.90
13488;DHT22;6816;48.506;9.050;2023-02-02T11:03:08;9.20;99.90
13488;DHT22;6816;48.506;9.050;2023-02-02T11:06:11;9.20;99.90
13488;DHT22;6816;48.506;9.050;2023-02-02T11:09:35;9.20;99.90
13488;DHT22;6816;48.506;9.050;2023-02-02T11:12:41;9.30;99.90
13488;DHT22;6816;48.506;9.050;2023-02-02T11:15:45;9.20;99.90
13488;DHT22;6816;48.506;9.050;2023-02-02T11:18:46;9.20;99.90
13488;DHT22;6816;48.506;9.050;2023-02-02T11:21:57;9.20;99.90
13488;DHT22;6816;48.506;9.050;2023-02-02T11:28:20;9.20;99.90
13488;DHT22;6816;48.506;9.050;2023-02-02T11:31:34;9.10;99.90
13488;DHT22;6816;48.506;9.050;2023-02-02T11:34:35;9.10;99.90
13488;DHT22;6816;48.506;9.050;2023-02-02T11:37:37;9.10;99.90
13488;DHT22;6816;48.506;9.050;2023-02-02T11:40:41;9.10;99.90
13488;DHT22;6816;48.506;9.050;2023-02-02T11:43:51;9.00;99.90
13488;DHT22;6816;48.506;9.050;2023-02-02T11:46:53;9.00;99.90
13488;DHT22;6816;48.506;9.050;2023-02-02T11:49:57;9.10;99.90
13488;DHT22;6816;48.506;9.050;2023-02-02T11:52:59;9.00;99.90
13488;DHT22;6816;48.506;9.050;2023-02-02T11:56:08;8.90;99.90
13488;DHT22;6816;48.506;9.050;2023-02-02T11:59:37;8.90;99.90
13488;DHT22;6816;48.506;9.050;2023-02-02T12:02:45;8.90;99.90
13488;DHT22;6816;48.506;9.050;2023-02-02T12:05:45;8.90;99.90
13488;DHT22;6816;48.506;9.050;2023-02-02T12:09:00;8.90;99.90
13488;DHT22;6816;48.506;9.050;2023-02-02T12:12:31;8.90;99.90
13488;DHT22;6816;48.506;9.050;2023-02-02T12:15:57;9.00;99.90
13488;DHT22;6816;48.506;9.050;2023-02-02T12:32:33;9.10;99.90
13488;DHT22;6816;48.506;9.050;2023-02-02T12:36:09;9.10;99.90
13488;DHT22;6816;48.506;9.050;2023-02-02T12:43:43;9.10;99.90
13488;DHT22;6816;48.506;9.050;2023-02-02T12:46:54;9.10;99.90
13488;DHT22;6816;48.506;9.050;2023-02-02T12:53:40;9.10;99.90
13488;DHT22;6816;48.506;9.050;2023-02-02T12:57:05;9.10;99.90
13488;DHT22;6816;48.506;9.050;2023-02-02T13:00:31;9.10;99.90
13488;DHT22;6816;48.506;9.050;2023-02-02T13:10:20;9.20;99.90
13488;DHT22;6816;48.506;9.050;2023-02-02T13:13:28;9.30;99.90
13488;DHT22;6816;48.506;9.050;2023-02-02T13:16:31;9.30;99.90
13488;DHT22;6816;48.506;9.050;2023-02-02T13:19:39;9.40;99.90
13488;DHT22;6816;48.506;9.050;2023-02-02T13:22:41;9.40;99.90
13488;DHT22;6816;48.506;9.050;2023-02-02T13:25:48;9.40;99.90
13488;DHT22;6816;48.506;9.050;2023-02-02T13:29:04;9.40;99.90
13488;DHT22;6816;48.506;9.050;2023-02-02T13:32:15;9.50;99.90
13488;DHT22;6816;48.506;9.050;2023-02-02T13:35:27;9.50;99.90
13488;DHT22;6816;48.506;9.050;2023-02-02T13:38:30;9.50;99.90
13488;DHT22;6816;48.506;9.050;2023-02-02T13:41:31;9.50;99.90
13488;DHT22;6816;48.506;9.050;2023-02-02T13:44:35;9.50;99.90
13488;DHT22;6816;48.506;9.050;2023-02-02T13:47:43;9.50;99.90
13488;DHT22;6816;48.506;9.050;2023-02-02T13:51:04;9.50;99.90
13488;DHT22;6816;48.506;9.050;2023-02-02T13:54:33;9.50;99.90
13488;DHT22;6816;48.506;9.050;2023-02-02T13:58:03;9.40;99.90
13488;DHT22;6816;48.506;9.050;2023-02-02T14:01:12;9.30;99.90
13488;DHT22;6816;48.506;9.050;2023-02-02T14:04:22;9.30;99.90
13488;DHT22;6816;48.506;9.050;2023-02-02T14:10:42;9.20;99.90
13488;DHT22;6816;48.506;9.050;2023-02-02T14:13:48;9.20;99.90
13488;DHT22;6816;48.506;9.050;2023-02-02T14:20:42;9.10;99.90
13488;DHT22;6816;48.506;9.050;2023-02-02T14:23:53;9.10;99.90
13488;DHT22;6816;48.506;9.050;2023-02-02T14:26:59;9.10;99.90
13488;DHT22;6816;48.506;9.050;2023-02-02T14:30:20;9.20;99.90
13488;DHT22;6816;48.506;9.050;2023-02-02T14:36:21;9.00;99.90
13488;DHT22;6816;48.506;9.050;2023-02-02T14:39:25;9.10;99.90
13488;DHT22;6816;48.506;9.050;2023-02-02T14:42:44;9.10;99.90
13488;DHT22;6816;48.506;9.050;2023-02-02T14:49:22;9.10;99.90
13488;DHT22;6816;48.506;9.050;2023-02-02T14:52:25;9.10;99.90
13488;DHT22;6816;48.506;9.050;2023-02-02T14:55:27;9.10;99.90
13488;DHT22;6816;48.506;9.050;2023-02-02T14:58:29;9.10;99.90
13488;DHT22;6816;48.506;9.050;2023-02-02T15:01:33;9.10;99.90
13488;DHT22;6816;48.506;9.050;2023-02-02T15:04:34;9.20;99.90
13488;DHT22;6816;48.506;9.050;2023-02-02T15:07:37;9.10;99.90
13488;DHT22;6816;48.506;9.050;2023-02-02T15:13:53;9.10;99.90
13488;DHT22;6816;48.506;9.050;2023-02-02T15:17:00;9.10;99.90
13488;DHT22;6816;48.506;9.050;2023-02-02T15:20:23;9.10;99.90
13488;DHT22;6816;48.506;9.050;2023-02-02T15:23:41;9.10;99.90
13488;DHT22;6816;48.506;9.050;2023-02-02T15:26:44;9.10;99.90
13488;DHT22;6816;48.506;9.050;2023-02-02T15:29:49;9.10;99.90
13488;DHT22;6816;48.506;9.050;2023-02-02T15:32:52;9.10;99.90
13488;DHT22;6816;48.506;9.050;2023-02-02T15:35:53;9.10;99.90
13488;DHT22;6816;48.506;9.050;2023-02-02T15:39:12;9.00;99.90
13488;DHT22;6816;48.506;9.050;2023-02-02T15:42:28;9.00;99.90
13488;DHT22;6816;48.506;9.050;2023-02-02T15:45:53;9.10;99.90
13488;DHT22;6816;48.506;9.050;2023-02-02T15:52:26;9.00;99.90
13488;DHT22;6816;48.506;9.050;2023-02-02T15:55:33;9.00;99.90
13488;DHT22;6816;48.506;9.050;2023-02-02T15:58:37;9.00;99.90
13488;DHT22;6816;48.506;9.050;2023-02-02T16:01:46;9.00;99.90
13488;DHT22;6816;48.506;9.050;2023-02-02T16:04:49;9.00;99.90
13488;DHT22;6816;48.506;9.050;2023-02-02T16:07:49;8.90;99.90
13488;DHT22;6816;48.506;9.050;2023-02-02T16:11:02;9.00;99.90
13488;DHT22;6816;48.506;9.050;2023-02-02T16:14:04;9.00;99.90
13488;DHT22;6816;48.506;9.050;2023-02-02T16:17:30;9.00;99.90
13488;DHT22;6816;48.506;9.050;2023-02-02T16:20:33;8.90;99.90
13488;DHT22;6816;48.506;9.050;2023-02-02T16:23:35;8.90;99.90
13488;DHT22;6816;48.506;9.050;2023-02-02T16:26:36;8.90;99.90
13488;DHT22;6816;48.506;9.050;2023-02-02T16:29:39;9.00;99.90
13488;DHT22;6816;48.506;9.050;2023-02-02T16:32:40;8.90;99.90
13488;DHT22;6816;48.506;9.050;2023-02-02T16:35:43;8.90;99.90
13488;DHT22;6816;48.506;9.050;2023-02-02T16:38:43;8.90;99.90
13488;DHT22;6816;48.506;9.050;2023-02-02T16:41:44;8.90;99.90
13488;DHT22;6816;48.506;9.050;2023-02-02T16:44:48;8.90;99.90
13488;DHT22;6816;48.506;9.050;2023-02-02T16:47:50;8.90;99.90
13488;DHT22;6816;48.506;9.050;2023-02-02T16:57:10;8.90;99.90
13488;DHT22;6816;48.506;9.050;2023-02-02T17:00:23;8.90;99.90
13488;DHT22;6816;48.506;9.050;2023-02-02T17:03:30;8.90;99.90
13488;DHT22;6816;48.506;9.050;2023-02-02T17:06:33;8.90;99.90
13488;DHT22;6816;48.506;9.050;2023-02-02T17:09:37;8.90;99.90
13488;DHT22;6816;48.506;9.050;2023-02-02T17:12:40;8.90;99.90
13488;DHT22;6816;48.506;9.050;2023-02-02T17:15:40;8.90;99.90
13488;DHT22;6816;48.506;9.050;2023-02-02T17:18:41;8.90;99.90
13488;DHT22;6816;48.506;9.050;2023-02-02T17:21:42;8.90;99.90
13488;DHT22;6816;48.506;9.050;2023-02-02T17:24:44;8.90;99.90
13488;DHT22;6816;48.506;9.050;2023-02-02T17:27:45;8.90;99.90
13488;DHT22;6816;48.506;9.050;2023-02-02T17:30:48;8.90;99.90
13488;DHT22;6816;48.506;9.050;2023-02-02T17:33:51;8.90;99.90
13488;DHT22;6816;48.506;9.050;2023-02-02T17:36:51;8.90;99.90
13488;DHT22;6816;48.506;9.050;2023-02-02T17:39:53;8.90;99.90
13488;DHT22;6816;48.506;9.050;2023-02-02T17:42:54;8.90;99.90
13488;DHT22;6816;48.506;9.050;2023-02-02T17:45:54;8.90;99.90
13488;DHT22;6816;48.506;9.050;2023-02-02T17:48:56;8.90;99.90
13488;DHT22;6816;48.506;9.050;2023-02-02T17:51:57;8.90;99.90
13488;DHT22;6816;48.506;9.050;2023-02-02T17:54:57;8.90;99.90
13488;DHT22;6816;48.506;9.050;2023-02-02T17:57:58;8.90;99.90
13488;DHT22;6816;48.506;9.050;2023-02-02T18:00:58;8.90;99.90
13488;DHT22;6816;48.506;9.050;2023-02-02T18:03:59;8.90;99.90
13488;DHT22;6816;48.506;9.050;2023-02-02T18:07:00;8.90;99.90
13488;DHT22;6816;48.506;9.050;2023-02-02T18:10:02;8.90;99.90
13488;DHT22;6816;48.506;9.050;2023-02-02T18:13:03;8.80;99.90
13488;DHT22;6816;48.506;9.050;2023-02-02T18:16:05;8.90;99.90
13488;DHT22;6816;48.506;9.050;2023-02-02T18:19:05;8.80;99.90
13488;DHT22;6816;48.506;9.050;2023-02-02T18:22:06;8.90;99.90
13488;DHT22;6816;48.506;9.050;2023-02-02T18:25:07;8.80;99.90
13488;DHT22;6816;48.506;9.050;2023-02-02T18:28:09;8.80;99.90
13488;DHT22;6816;48.506;9.050;2023-02-02T18:31:12;8.80;99.90
13488;DHT22;6816;48.506;9.050;2023-02-02T18:34:13;8.80;99.90
13488;DHT22;6816;48.506;9.050;2023-02-02T18:37:13;8.80;99.90
13488;DHT22;6816;48.506;9.050;2023-02-02T18:40:14;8.80;99.90
13488;DHT22;6816;48.506;9.050;2023-02-02T18:43:14;8.70;99.90
13488;DHT22;6816;48.506;9.050;2023-02-02T18:46:15;8.70;99.90
13488;DHT22;6816;48.506;9.050;2023-02-02T18:49:17;8.70;99.90
13488;DHT22;6816;48.506;9.050;2023-02-02T18:52:17;8.70;99.90
13488;DHT22;6816;48.506;9.050;2023-02-02T18:55:18;8.70;99.90
13488;DHT22;6816;48.506;9.050;2023-02-02T18:58:19;8.80;99.90
13488;DHT22;6816;48.506;9.050;2023-02-02T19:01:20;8.60;99.90
13488;DHT22;6816;48.506;9.050;2023-02-02T19:04:22;8.60;99.90
13488;DHT22;6816;48.506;9.050;2023-02-02T19:07:23;8.50;99.90
13488;DHT22;6816;48.506;9.050;2023-02-02T19:10:42;8.60;99.90
13488;DHT22;6816;48.506;9.050;2023-02-02T19:13:44;8.50;99.90
13488;DHT22;6816;48.506;9.050;2023-02-02T19:16:47;8.50;99.90
13488;DHT22;6816;48.506;9.050;2023-02-02T19:19:47;8.50;99.90
13488;DHT22;6816;48.506;9.050;2023-02-02T19:22:49;8.40;99.90
13488;DHT22;6816;48.506;9.050;2023-02-02T19:25:54;8.40;99.90
13488;DHT22;6816;48.506;9.050;2023-02-02T19:29:00;8.40;99.90
13488;DHT22;6816;48.506;9.050;2023-02-02T19:32:11;8.40;99.90
13488;DHT22;6816;48.506;9.050;2023-02-02T19:35:21;8.40;99.90
13488;DHT22;6816;48.506;9.050;2023-02-02T19:38:25;8.30;99.90
13488;DHT22;6816;48.506;9.050;2023-02-02T19:41:28;8.30;99.90
13488;DHT22;6816;48.506;9.050;2023-02-02T19:44:30;8.30;99.90
13488;DHT22;6816;48.506;9.050;2023-02-02T19:47:32;8.40;99.90
13488;DHT22;6816;48.506;9.050;2023-02-02T19:50:36;8.20;99.90
13488;DHT22;6816;48.506;9.050;2023-02-02T19:53:38;8.20;99.90
13488;DHT22;6816;48.506;9.050;2023-02-02T19:56:39;8.20;99.90
13488;DHT22;6816;48.506;9.050;2023-02-02T19:59:41;8.20;99.90
13488;DHT22;6816;48.506;9.050;2023-02-02T20:03:01;8.10;99.90
13488;DHT22;6816;48.506;9.050;2023-02-02T20:06:04;8.10;99.90
13488;DHT22;6816;48.506;9.050;2023-02-02T20:09:14;8.10;99.90
13488;DHT22;6816;48.506;9.050;2023-02-02T20:12:24;8.10;99.90
13488;DHT22;6816;48.506;9.050;2023-02-02T20:18:39;8.00;99.90
13488;DHT22;6816;48.506;9.050;2023-02-02T20:21:45;8.00;99.90
13488;DHT22;6816;48.506;9.050;2023-02-02T20:24:47;8.00;99.90
13488;DHT22;6816;48.506;9.050;2023-02-02T20:27:49;7.90;99.90
13488;DHT22;6816;48.506;9.050;2023-02-02T20:30:50;7.90;99.90
13488;DHT22;6816;48.506;9.050;2023-02-02T20:33:53;7.80;99.90
13488;DHT22;6816;48.506;9.050;2023-02-02T20:37:21;7.80;99.90
13488;DHT22;6816;48.506;9.050;2023-02-02T20:40:25;7.80;99.90
13488;DHT22;6816;48.506;9.050;2023-02-02T20:43:26;7.70;99.90
13488;DHT22;6816;48.506;9.050;2023-02-02T20:46:26;7.70;99.90
13488;DHT22;6816;48.506;9.050;2023-02-02T20:49:28;7.70;99.90
13488;DHT22;6816;48.506;9.050;2023-02-02T20:52:31;7.60;99.90
13488;DHT22;6816;48.506;9.050;2023-02-02T20:55:32;7.60;99.90
13488;DHT22;6816;48.506;9.050;2023-02-02T20:58:35;7.60;99.90
13488;DHT22;6816;48.506;9.050;2023-02-02T21:01:36;7.60;99.90
13488;DHT22;6816;48.506;9.050;2023-02-02T21:04:36;7.60;99.90
13488;DHT22;6816;48.506;9.050;2023-02-02T21:07:38;7.50;99.90
13488;DHT22;6816;48.506;9.050;2023-02-02T21:10:39;7.50;99.90
13488;DHT22;6816;48.506;9.050;2023-02-02T21:13:39;7.50;99.90
13488;DHT22;6816;48.506;9.050;2023-02-02T21:16:40;7.50;99.90
13488;DHT22;6816;48.506;9.050;2023-02-02T21:19:41;7.50;99.90
13488;DHT22;6816;48.506;9.050;2023-02-02T21:22:42;7.40;99.90
13488;DHT22;6816;48.506;9.050;2023-02-02T21:25:42;7.40;99.90
13488;DHT22;6816;48.506;9.050;2023-02-02T21:28:43;7.40;99.90
13488;DHT22;6816;48.506;9.050;2023-02-02T21:31:44;7.40;99.90
13488;DHT22;6816;48.506;9.050;2023-02-02T21:34:45;7.40;99.90
13488;DHT22;6816;48.506;9.050;2023-02-02T21:37:45;7.40;99.90
13488;DHT22;6816;48.506;9.050;2023-02-02T21:40:49;7.50;99.90
13488;DHT22;6816;48.506;9.050;2023-02-02T21:43:52;7.50;99.90
13488;DHT22;6816;48.506;9.050;2023-02-02T21:46:53;7.50;99.90